• Join FlightAware (Why Join?)
  • Login
  • US Flag 
04:54AM EDT


 

Airport Tracker/Info


-or-


 

Live Flight TrackerFlight Track Log ✈ DAL2352 ✈ 10-Aug-2014 ✈ KATL - KJFK

Flight Track Log - Related Links

Times and Time Zones

All times are in EDT time to prevent confusion due to time zone crossing. See the DAL2352 flight status page for this flight to view local times or setup timezone preferences in your user account.

Time Position Orientation Groundspeed Altitude Reporting Facility
EDT Latitude Longitude Course Direction KTS MPH feet Rate Location/Type
08:50AM 33.6333 -84.4833 239° Southwest 197 227 2,500  Level Atlanta TRACON
08:50AM 33.6000 -84.5500 239° Southwest 258 297 5,000 2,940 Climbing Atlanta TRACON
08:51AM 33.5500 -84.5833 209° Southwest 294 338 8,200 2,700 Climbing Atlanta TRACON
08:53AM 33.4672 -84.5631 168° South 291 335 10,900 2,520 Climbing Atlanta Center
08:54AM 33.4558 -84.4281 96° East 363 418 13,700 2,100 Climbing Atlanta Center
08:55AM 33.4583 -84.3033 89° East 378 435 15,300 2,160 Climbing Atlanta Center
08:56AM 33.4972 -84.1786 69° East 410 472 18,200 2,100 Climbing Atlanta Center
08:57AM 33.5467 -84.0603 63° Northeast 404 465 19,700 1,500 Climbing Atlanta Center
08:58AM 33.5983 -83.9269 65° Northeast 451 519 21,300 1,740 Climbing Atlanta Center
08:59AM 33.6375 -83.7597 74° East 460 529 23,400 1,740 Climbing Atlanta Center
09:00AM 33.6675 -83.6119 76° East 456 525 24,900 1,260 Climbing Atlanta Center
09:01AM 33.7247 -83.4714 64° Northeast 467 537 26,100 1,140 Climbing Atlanta Center
09:02AM 33.7878 -83.3244 63° Northeast 490 564 27,300 1,140 Climbing Atlanta Center
09:03AM 33.8467 -83.1778 64° Northeast 491 565 28,500 1,440 Climbing Atlanta Center
09:04AM 33.9058 -83.0289 64° Northeast 492 566 30,300 1,560 Climbing Atlanta Center
09:05AM 33.9756 -82.8544 64° Northeast 490 564 31,800 1,620 Climbing Atlanta Center
09:06AM 34.0322 -82.7078 65° Northeast 488 562 33,700 1,020 Climbing Atlanta Center
09:11AM 34.3468 -81.9644 65° Northeast 39,000 900 Climbing FlightAware ADS-B (KCDN)
09:12AM 34.3800 -81.8984 59° Northeast 470 541 39,000  Level FlightAware ADS-B (KCDN)
09:12AM 34.4306 -81.7975 59° Northeast 473 544 39,000  Level FlightAware ADS-B (KCDN)
09:13AM 34.4593 -81.7401 59° Northeast 474 545 39,000  Level FlightAware ADS-B (KINT)
09:14AM 34.5177 -81.6225 59° Northeast 475 547 39,000  Level FlightAware ADS-B (KCDN)
09:14AM 34.5667 -81.5237 59° Northeast 477 549 39,000  Level FlightAware ADS-B (KCDN)
09:15AM 34.6036 -81.4492 59° Northeast 478 550 39,000  Level FlightAware ADS-B (KINT)
09:16AM 34.6534 -81.3484 59° Northeast 479 551 39,000  Level FlightAware ADS-B (KCDN)
09:16AM 34.6995 -81.2547 59° Northeast 479 551 39,000  Level FlightAware ADS-B (KCDN)
09:17AM 34.7385 -81.1752 59° Northeast 478 550 39,000  Level FlightAware ADS-B (KCDN)
09:18AM 34.7822 -81.0862 59° Northeast 477 549 39,000  Level FlightAware ADS-B (KINT)
09:18AM 34.8251 -80.9983 59° Northeast 475 547 39,000  Level FlightAware ADS-B (KINT)
09:19AM 34.8653 -80.9160 59° Northeast 475 547 39,000  Level FlightAware ADS-B (KINT)
09:21AM 34.9927 -80.6535 60° Northeast 475 547 39,000  Level FlightAware ADS-B (KINT)
09:21AM 35.0385 -80.5587 60° Northeast 474 545 39,000  Level FlightAware ADS-B (KINT)
09:22AM 35.0932 -80.4449 60° Northeast 476 548 39,000  Level FlightAware ADS-B (KINT)
09:23AM 35.1494 -80.3277 60° Northeast 477 549 39,000  Level FlightAware ADS-B (KINT)
09:24AM 35.1985 -80.2251 60° Northeast 478 550 39,000  Level FlightAware ADS-B (KINT)
09:24AM 35.2383 -80.1415 60° Northeast 480 552 39,000  Level FlightAware ADS-B (KINT)
09:25AM 35.2722 -80.0704 60° Northeast 480 552 39,000  Level FlightAware ADS-B (KINT)
09:25AM 35.3018 -80.0080 60° Northeast 481 554 39,000  Level FlightAware ADS-B (KINT)
09:26AM 35.3540 -79.8978 60° Northeast 482 555 39,000  Level FlightAware ADS-B (KINT)
09:27AM 35.3882 -79.8255 60° Northeast 481 554 39,000  Level FlightAware ADS-B (KINT)
09:27AM 35.4224 -79.7529 60° Northeast 482 555 39,000  Level FlightAware ADS-B (KINT)
09:28AM 35.4642 -79.6639 60° Northeast 482 555 39,000  Level FlightAware ADS-B (KINT)
09:29AM 35.5099 -79.5665 60° Northeast 482 555 39,000  Level FlightAware ADS-B (KINT)
09:29AM 35.5667 -79.4450 60° Northeast 482 555 39,000  Level FlightAware ADS-B (KINT)
09:30AM 35.6161 -79.3389 60° Northeast 482 555 39,000  Level FlightAware ADS-B (KINT)
09:31AM 35.6619 -79.2404 60° Northeast 484 557 39,000  Level FlightAware ADS-B (KINT)
09:31AM 35.6990 -79.1604 61° Northeast 485 558 39,000  Level FlightAware ADS-B (KINT)
09:32AM 35.7522 -79.0450 61° Northeast 486 559 39,000  Level FlightAware ADS-B (KINT)
09:33AM 35.8022 -78.9367 61° Northeast 487 560 39,000  Level FlightAware ADS-B (KINT)
09:34AM 35.8669 -78.7818 78° East 503 579 39,000  Level FlightAware ADS-B (KINT)
09:35AM 35.8891 -78.6310 83° East 509 586 39,000  Level FlightAware ADS-B (KINT)
09:36AM 35.8996 -78.5195 84° East 509 586 39,000  Level FlightAware ADS-B (KINT)
09:36AM 35.9183 -78.3200 84° East 509 586 39,000  Level FlightAware ADS-B (KWWD)
09:37AM 35.9379 -78.1156 84° East 510 587 39,000  Level FlightAware ADS-B (KWWD)
09:43AM 36.2151 -77.3184 54° Northeast 468 539 39,000  Level FlightAware ADS-B (KWWD)
09:43AM 36.2692 -77.2304 54° Northeast 466 536 39,000  Level FlightAware ADS-B (KWWD)
09:44AM 36.3267 -77.1366 54° Northeast 464 534 39,000  Level FlightAware ADS-B (KWWD)
09:45AM 36.4033 -77.0111 54° Northeast 462 532 39,000  Level FlightAware ADS-B (KWWD)
09:46AM 36.4599 -76.9182 54° Northeast 462 532 39,000  Level FlightAware ADS-B (KWWD)
09:47AM 36.5257 -76.8097 54° Northeast 463 533 39,000  Level FlightAware ADS-B (KWWD)
09:48AM 36.6417 -76.6178 54° Northeast 463 533 39,000  Level FlightAware ADS-B (KWWD)
09:49AM 36.7394 -76.4551 54° Northeast 462 532 39,000  Level FlightAware ADS-B (KWWD)
09:50AM 36.7865 -76.3767 54° Northeast 462 532 39,000  Level FlightAware ADS-B (KWWD)
09:51AM 36.8505 -76.2696 54° Northeast 463 533 39,000  Level FlightAware ADS-B (KWWD)
09:51AM 36.8873 -76.2169 38° Northeast 447 514 39,000  Level FlightAware ADS-B (KWWD)
09:52AM 36.9324 -76.1793 27° Northeast 435 501 39,000  Level FlightAware ADS-B (KWWD)
09:52AM 36.9885 -76.1485 24° Northeast 423 487 39,000  Level FlightAware ADS-B (KWWD)
09:53AM 37.0587 -76.1115 23° Northeast 422 486 39,000  Level FlightAware ADS-B (KWWD)
09:53AM 37.1166 -76.0811 23° Northeast 422 486 39,000  Level FlightAware ADS-B (KWWD)
09:54AM 37.1714 -76.0520 24° Northeast 423 487 39,000  Level FlightAware ADS-B (KWWD)
09:55AM 37.2628 -76.0032 24° Northeast 425 489 39,000  Level FlightAware ADS-B (KWWD)
09:55AM 37.3291 -75.9676 24° Northeast 424 488 39,000  Level FlightAware ADS-B (KWWD)
09:56AM 37.3900 -75.9350 24° Northeast 423 487 39,000  Level FlightAware ADS-B (KWWD)
09:56AM 37.4473 -75.9043 24° Northeast 422 486 39,000  Level FlightAware ADS-B (KWWD)
09:57AM 37.5047 -75.8732 24° Northeast 423 487 39,000  Level FlightAware ADS-B (KWWD)
09:58AM 37.5744 -75.8275 31° Northeast 429 494 39,000  Level FlightAware ADS-B (KWWD)
09:58AM 37.6275 -75.7880 31° Northeast 431 496 39,000  Level FlightAware ADS-B (KWWD)
09:59AM 37.6970 -75.7356 32° Northeast 431 496 39,000  Level FlightAware ADS-B (KWWD)
10:00AM 37.7823 -75.6711 31° Northeast 435 501 39,000  Level FlightAware ADS-B (KWWD)
10:00AM 37.8523 -75.6184 31° Northeast 432 497 39,000  Level FlightAware ADS-B (KWWD)
10:01AM 37.9041 -75.5794 31° Northeast 432 497 39,000  Level FlightAware ADS-B (KWWD)
10:01AM 37.9052 -75.5787 31° Northeast 431 496 39,000  Level FlightAware ADS-B (KSBY)
10:02AM 37.9625 -75.5353 31° Northeast 432 497 39,000  Level FlightAware ADS-B (KSBY)
10:03AM 38.0256 -75.4874 30° Northeast 430 495 39,000  Level FlightAware ADS-B (KSBY)
10:03AM 38.0136 -75.4965 30° Northeast 430 495 39,000  Level FlightAware ADS-B (KDCA)
10:03AM 38.1181 -75.4249 27° Northeast 426 490 39,000  Level FlightAware ADS-B (KSBY)
10:04AM 38.1945 -75.3767 26° Northeast 425 489 39,000  Level FlightAware ADS-B (KSBY)
10:05AM 38.2641 -75.3330 27° Northeast 426 490 39,000  Level FlightAware ADS-B (KPHL)
10:05AM 38.3070 -75.3058 27° Northeast 425 489 39,000 -360 Level FlightAware ADS-B (KSBY)
10:06AM 38.3794 -75.2598 27° Northeast 426 490 38,600 -1,080 Descending FlightAware ADS-B (KSBY)
10:06AM 38.4054 -75.2433 27° Northeast 429 494 37,900 -1,560 Descending FlightAware ADS-B (KSBY)
10:07AM 38.4926 -75.1879 27° Northeast 441 507 36,900 -1,500 Descending FlightAware ADS-B (KSBY)
10:07AM 38.5622 -75.1434 27° Northeast 442 509 36,200 -1,440 Descending FlightAware ADS-B (KPHL)
10:08AM 38.6888 -75.0624 27° Northeast 438 504 35,200 -960 Descending FlightAware ADS-B (KWWD)
10:09AM 38.6816 -75.0670 27° Northeast 445 512 35,100 -120 Descending FlightAware ADS-B (KPHL)
10:10AM 38.8192 -74.9788 27° Northeast 441 507 35,000 -60 Descending FlightAware ADS-B (KPHL)
10:11AM 38.9234 -74.9117 27° Northeast 441 507 35,000 -360 Level FlightAware ADS-B (KPHL)
10:11AM 39.0502 -74.8295 28° Northeast 435 501 34,500 -1,560 Descending FlightAware ADS-B (KWWD)
10:12AM 39.1332 -74.7598 39° Northeast 433 498 32,700 -2,700 Descending FlightAware ADS-B (KWWD)
10:13AM 39.2088 -74.6786 40° Northeast 442 509 30,200 -3,360 Descending FlightAware ADS-B (KWWD)
10:14AM 39.2551 -74.6279 40° Northeast 443 510 28,400 -3,480 Descending FlightAware ADS-B (KWWD)
10:14AM 39.3232 -74.5536 40° Northeast 439 505 26,000 -2,160 Descending FlightAware ADS-B (KWWD)
10:15AM 39.2514 -74.6320 40° Northeast 443 510 25,400 -2,760 Descending FlightAware ADS-B (KDCA)
10:16AM 39.4873 -74.3750 40° Northeast 421 484 21,000 -2,820 Descending FlightAware ADS-B (KWWD)
10:17AM 39.5257 -74.3331 40° Northeast 418 481 19,800 -1,860 Descending FlightAware ADS-B (KPHL)
10:18AM 39.6152 -74.2421 35° Northeast 414 476 17,500 -2,400 Descending FlightAware ADS-B (KPHL)
10:19AM 39.7146 -74.1505 37° Northeast 399 459 16,000 -2,280 Descending FlightAware ADS-B (KWWD)
10:19AM 39.7617 -74.1057 36° Northeast 396 456 15,000 -1,440 Descending FlightAware ADS-B (KWWD)
10:20AM 39.7968 -74.0721 37° Northeast 388 447 14,000 -1,380 Descending FlightAware ADS-B (KPHL)
10:22AM 39.9573 -73.9184 36° Northeast 309 356 11,200 -1,140 Descending FlightAware ADS-B (KPHL)
10:23AM 40.0266 -73.8588 36° Northeast 283 326 10,700 -840 Descending FlightAware ADS-B (KPHL)
10:24AM 40.1250 -73.7930 28° Northeast 276 318 9,600 -1,320 Descending FlightAware ADS-B (KWWD)
10:24AM 40.1474 -73.7783 28° Northeast 276 318 9,100 -1,620 Descending FlightAware ADS-B (KWWD)
10:25AM 40.1701 -73.7634 28° Northeast 274 315 8,600 -420 Descending FlightAware ADS-B (KWWD)
10:25AM 40.1833 -73.7500 28° Northeast 282 325 8,700 -840 Climbing New York TRACON
10:26AM 40.2247 -73.7258 24° Northeast 274 315 7,500 -1,440 Descending New York Center
10:27AM 40.2881 -73.6850 26° Northeast 274 315 6,300 -1,200 Descending New York Center
10:28AM 40.3622 -73.6364 27° Northeast 269 310 5,100 -1,320 Descending New York Center
10:29AM 40.4256 -73.6119 16° North 264 304 3,800 -1,320 Descending New York Center
10:30AM 40.5025 -73.6150 358° North 253 291 2,500 -900 Descending New York Center
10:31AM 40.5708 -73.6342 348° North 253 291 2,000 -600 Descending New York Center
10:32AM 40.6069 -73.6850 313° West 207 238 1,400 -720 Descending New York Center
10:33AM 40.6308 -73.7325 304° West 182 209 600 -540 Descending New York Center
10:34AM 40.6586 -73.7883 303° West 175 201 400 -240 Descending New York Center